Latest Weather Observations for Ivanhoe Airport

IDN60801

Issued at 5:22 pm EST Friday 22 June 2018 (issued every 10 minutes, with the page automatically refreshed every 10 minutes)

About weather observations | Map of weather stations | Latest weather observations for NSW | Other Formats
Station Details ID: 049000 Name: IVANHOE AERODROME AWS Lat: -32.88 Lon: 144.31 Height: 100.0 m
Data from the previous 72 hours. | See also: Recent months at Ivanhoe Airport
Date/Time
EST
Temp
°C
App
Temp
°C
Dew
Point
°C
Rel
Hum
%
Delta-T
°C
Wind Press
QNH
hPa
Press
MSL
hPa
Rain since
9am
mm
Dir  Spd
km/h
Gust
km/h
Spd
kts
Gust
kts
22/05:00pm 17.3 14.5 2.9 38 6.6 SW 7 11 4 6 1025.8 1025.9 0.0
22/04:30pm 18.4 16.1 2.7 35 7.3 SSW 4 7 2 4 1025.7 1025.8 0.0
22/04:00pm 18.7 15.4 2.5 34 7.4 WSW 9 15 5 8 1025.8 1025.9 0.0
22/03:30pm 18.9 15.6 2.7 34 7.5 SSW 9 13 5 7 1025.8 1025.9 0.0
22/03:00pm 19.0 15.7 2.4 33 7.6 WNW 9 15 5 8 1026.0 1026.1 0.0
22/02:30pm 18.7 15.9 2.9 35 7.4 W 7 13 4 7 1026.0 1026.1 0.0
22/02:00pm 19.2 17.0 3.4 35 7.4 SW 4 7 2 4 1026.3 1026.4 0.0
22/01:30pm 18.5 15.8 2.8 35 7.3 NW 6 9 3 5 1026.5 1026.6 0.0
22/01:00pm 18.4 15.6 3.1 36 7.1 NNE 7 13 4 7 1027.0 1027.1 0.0
22/12:30pm 17.8 14.5 2.5 36 7.0 NNW 9 13 5 7 1027.7 1027.8 0.0
22/12:00pm 17.3 14.3 3.9 41 6.3 NNE 9 11 5 6 1028.2 1028.3 0.0
22/11:30am 16.5 13.8 3.9 43 5.9 NNE 7 11 4 6 1028.6 1028.7 0.0
22/11:00am 15.5 13.1 4.3 47 5.2 NNE 6 9 3 5 1029.0 1029.1 0.0
22/10:30am 13.8 11.2 4.1 52 4.5 NNE 7 11 4 6 1029.1 1029.2 0.0
22/10:00am 12.0 9.6 4.5 60 3.4 NNE 6 9 3 5 1029.1 1029.2 0.0
22/09:30am 9.4 6.9 3.8 68 2.5 NE 6 7 3 4 1028.9 1029.0 0.0
22/09:00am 7.4 4.7 3.5 76 1.7 E 7 9 4 5 1028.7 1028.8 0.0
22/08:30am 5.0 2.6 2.4 83 1.1 SSE 4 7 2 4 1028.7 1028.8 0.0
22/08:00am 2.9 -0.2 1.3 89 0.6 S 7 9 4 5 1028.5 1028.6 0.0
22/07:30am 1.8 -1.5 0.0 88 0.7 S 7 9 4 5 1028.3 1028.4 0.0
22/07:00am 2.5 -1.1 0.6 87 0.7 S 9 9 5 5 1028.0 1028.1 0.0
22/06:30am 2.8 -1.2 0.7 86 0.8 S 11 13 6 7 1027.7 1027.8 0.0
22/06:00am 3.3 -0.2 1.0 85 0.9 S 9 11 5 6 1027.5 1027.6 0.0
22/05:30am 3.5 0.0 1.1 84 0.9 SSW 9 11 5 6 1027.4 1027.5 0.0
22/05:00am 3.7 0.1 0.8 81 1.1 SSW 9 11 5 6 1027.3 1027.4 0.0
22/04:30am 4.7 1.2 1.4 79 1.3 SSE 9 13 5 7 1027.2 1027.3 0.0
22/04:00am 4.9 1.1 1.6 79 1.3 S 11 13 6 7 1027.3 1027.4 0.0
22/03:30am 5.7 2.0 2.2 78 1.4 SSE 11 17 6 9 1027.4 1027.5 0.0
22/03:00am 5.1 1.7 1.6 78 1.4 S 9 9 5 5 1027.4 1027.5 0.0
22/02:30am 5.8 2.4 1.9 76 1.6 S 9 13 5 7 1027.5 1027.6 0.0
22/02:00am 6.0 2.2 1.9 75 1.6 S 11 13 6 7 1027.8 1027.9 0.0
22/01:30am 6.6 2.5 2.3 74 1.8 SSE 13 15 7 8 1027.8 1027.9 0.0
22/01:00am 6.2 2.7 1.5 72 1.9 SSE 9 11 5 6 1027.9 1028.0 0.0
22/12:30am 6.9 3.1 1.8 70 2.1 S 11 13 6 7 1028.0 1028.1 0.0
22/12:00am 7.5 3.8 2.2 69 2.2 S 11 13 6 7 1028.1 1028.2 0.0
 
Date/Time
EST
Temp
°C
App
Temp
°C
Dew
Point
°C
Rel
Hum
%
Delta-T
°C
Wind Press
QNH
hPa
Press
MSL
hPa
Rain since
9am
mm
Dir  Spd
km/h
Gust
km/h
Spd
kts
Gust
kts
21/11:30pm 7.8 4.1 2.3 68 2.3 S 11 15 6 8 1028.2 1028.3 0.0
21/11:00pm 7.6 3.9 2.5 70 2.1 SSW 11 13 6 7 1028.2 1028.3 0.0
21/10:30pm 8.0 4.4 2.7 69 2.2 S 11 13 6 7 1028.1 1028.2 0.0
21/10:00pm 8.6 5.0 3.2 69 2.3 S 11 15 6 8 1028.1 1028.2 0.0
21/09:30pm 8.6 5.4 3.2 69 2.3 SW 9 11 5 6 1028.3 1028.4 0.0
21/09:00pm 9.2 6.1 3.4 67 2.5 SW 9 11 5 6 1028.2 1028.3 0.0
21/08:30pm 9.9 6.8 3.4 64 2.8 SW 9 13 5 7 1028.2 1028.3 0.0
21/08:00pm 10.8 7.4 3.8 62 3.1 SSW 11 13 6 7 1028.1 1028.2 0.0
21/07:30pm 11.6 8.2 4.1 60 3.4 SSW 11 15 6 8 1027.8 1027.9 0.0
21/07:00pm 12.3 8.6 4.3 58 3.6 SSW 13 17 7 9 1027.6 1027.7 0.0
21/06:30pm 13.2 9.5 4.6 56 4.0 SSW 13 17 7 9 1027.2 1027.3 0.0
21/06:00pm 14.0 10.7 4.6 53 4.3 SW 11 15 6 8 1026.5 1026.6 0.0
21/05:30pm 15.3 12.0 4.7 49 5.0 SSW 11 15 6 8 1026.3 1026.4 0.0
21/05:00pm 17.4 14.2 3.3 39 6.5 S 9 13 5 7 1026.0 1026.1 0.0
21/04:30pm 18.3 15.2 3.4 37 7.0 S 9 11 5 6 1026.0 1026.1 0.0
21/04:00pm 18.5 15.4 3.6 37 7.0 SE 9 13 5 7 1025.9 1026.0 0.0
21/03:30pm 18.9 16.1 3.1 35 7.4 SE 7 11 4 6 1025.8 1025.9 0.0
21/03:00pm 19.2 16.6 3.4 35 7.4 SSE 6 9 3 5 1025.8 1025.9 0.0
21/02:30pm 19.2 16.7 3.8 36 7.3 WSW 6 9 3 5 1025.9 1026.0 0.0
21/02:00pm 19.1 16.2 4.5 38 7.0 NNE 9 13 5 7 1026.1 1026.2 0.0
21/01:30pm 18.7 16.9 5.2 41 6.6 SE 4 9 2 5 1026.5 1026.6 0.0
21/01:00pm 18.6 15.7 4.8 40 6.6 NNE 9 15 5 8 1027.0 1027.1 0.0
21/12:30pm 18.0 15.3 5.6 44 6.1 ENE 9 17 5 9 1027.5 1027.6 0.0
21/12:00pm 17.5 14.8 5.8 46 5.7 ENE 9 15 5 8 1027.9 1028.0 0.0
21/11:30am 16.6 13.6 6.1 50 5.1 ENE 11 15 6 8 1028.3 1028.4 0.0
21/11:00am 15.6 13.0 6.3 54 4.5 ENE 9 11 5 6 1028.7 1028.8 0.0
21/10:30am 14.4 11.8 6.3 58 3.9 ENE 9 11 5 6 1028.9 1029.0 0.0
21/10:00am 12.9 10.3 6.3 64 3.1 E 9 9 5 5 1028.9 1029.0 0.0
21/09:30am 10.9 8.2 5.4 69 2.5 ENE 9 11 5 6 1029.0 1029.1 0.0
21/09:00am 9.2 6.5 5.4 77 1.7 ESE 9 11 5 6 1028.8 1028.9 0.0
21/08:30am 7.1 4.7 4.2 82 1.3 ESE 6 7 3 4 1028.6 1028.7 0.0
21/08:00am 4.9 2.1 3.2 89 0.7 ESE 7 9 4 5 1028.3 1028.4 0.0
21/07:30am 4.7 1.9 3.0 89 0.7 SSE 7 9 4 5 1028.1 1028.2 0.0
21/07:00am 4.9 1.8 3.4 90 0.6 SSE 9 11 5 6 1027.9 1028.0 0.0
21/06:30am 4.6 1.4 3.3 91 0.5 S 9 11 5 6 1027.8 1027.9 0.0
21/06:00am 4.2 0.6 2.7 90 0.6 SSW 11 11 6 6 1027.5 1027.6 0.0
21/05:30am 4.7 1.5 2.9 88 0.7 SSW 9 13 5 7 1027.4 1027.5 0.0
21/05:00am 5.3 1.8 3.3 87 0.8 SW 11 13 6 7 1027.2 1027.3 0.0
21/04:30am 6.0 2.5 3.5 84 1.1 S 11 15 6 8 1027.0 1027.1 0.0
21/04:00am 6.0 2.1 3.5 84 1.0 S 13 15 7 8 1027.0 1027.1 0.0
21/03:30am 6.4 3.3 3.6 82 1.2 S 9 13 5 7 1027.1 1027.2 0.0
21/03:00am 7.1 3.6 3.7 79 1.4 S 11 13 6 7 1026.7 1026.9 0.0
21/02:30am 7.8 4.8 4.2 78 1.6 SSW 9 11 5 6 1026.9 1027.0 0.0
21/02:00am 7.9 5.3 4.3 78 1.6 SW 7 9 4 5 1026.7 1026.9 0.0
21/01:30am 7.8 5.2 4.2 78 1.6 SW 7 9 4 5 1027.0 1027.1 0.0
21/01:00am 8.0 5.0 4.2 77 1.6 WSW 9 9 5 5 1027.3 1027.4 0.0
21/12:30am 8.2 5.3 4.4 77 1.7 SW 9 11 5 6 1027.4 1027.5 0.0
21/12:00am 8.5 5.6 4.7 77 1.7 WSW 9 13 5 7 1027.4 1027.5 0.0
 
Date/Time
EST
Temp
°C
App
Temp
°C
Dew
Point
°C
Rel
Hum
%
Delta-T
°C
Wind Press
QNH
hPa
Press
MSL
hPa
Rain since
9am
mm
Dir  Spd
km/h
Gust
km/h
Spd
kts
Gust
kts
20/11:30pm 8.8 6.3 4.6 75 1.9 WSW 7 13 4 7 1027.3 1027.4 0.0
20/11:00pm 9.0 6.5 4.6 74 1.9 SSW 7 9 4 5 1027.2 1027.3 0.0
20/10:30pm 9.4 6.5 4.8 73 2.1 S 9 13 5 7 1027.1 1027.2 0.0
20/10:00pm 9.8 7.5 4.6 70 2.3 SSE 6 9 3 5 1027.0 1027.1 0.0
20/09:30pm 10.0 7.5 4.8 70 2.3 SSW 7 9 4 5 1027.0 1027.1 0.0
20/09:00pm 10.1 7.2 4.9 70 2.3 SSW 9 15 5 8 1026.7 1026.9 0.0
20/08:30pm 10.3 8.1 5.1 70 2.4 W 6 7 3 4 1026.7 1026.9 0.0
20/08:00pm 10.5 8.2 4.9 68 2.5 WSW 6 7 3 4 1026.9 1027.0 0.0
20/07:30pm 11.3 9.0 5.0 65 2.9 SSE 6 7 3 4 1026.4 1026.5 0.0
20/07:00pm 11.6 8.4 5.0 64 3.0 SE 11 13 6 7 1026.1 1026.2 0.0
20/06:30pm 11.9 9.4 4.9 62 3.2 SSE 7 9 4 5 1026.3 1026.4 0.0
20/06:00pm 11.8 10.6 4.5 61 3.3 CALM 0 0 0 0 1026.4 1026.5 0.0
20/05:30pm 12.8 10.3 4.8 58 3.7 ESE 7 9 4 5 1026.2 1026.3 0.0
20/05:00pm 13.5 12.3 4.6 55 4.1 CALM 0 0 0 0 1026.2 1026.3 0.0
20/04:30pm 14.5 13.3 4.8 52 4.5 CALM 0 0 0 0 1026.4 1026.5 0.0
20/04:00pm 14.9 12.3 4.3 49 4.9 WNW 7 9 4 5 1026.5 1026.6 0.0
20/03:30pm 15.2 12.9 4.6 49 5.0 W 6 11 3 6 1026.6 1026.8 0.0
20/03:00pm 15.3 12.7 4.4 48 5.1 W 7 11 4 6 1026.5 1026.6 0.0
20/02:30pm 15.2 13.0 5.1 51 4.8 WSW 6 11 3 6 1026.4 1026.5 0.0
20/02:00pm 15.3 13.4 5.0 50 4.8 WNW 4 7 2 4 1026.4 1026.5 0.0
20/01:30pm 15.6 13.1 4.9 49 5.1 WNW 7 9 4 5 1026.5 1026.6 0.0
20/01:00pm 15.4 13.1 4.8 49 5.0 WSW 6 11 3 6 1027.0 1027.1 0.0
20/12:30pm 14.8 13.2 4.5 50 4.8 NNW 2 9 1 5 1027.4 1027.5 0.0
20/12:00pm 13.9 12.4 4.8 54 4.2 ENE 2 7 1 4 1027.9 1028.0 0.0
20/11:30am 11.9 10.7 4.4 60 3.4 CALM 0 4 0 2 1028.2 1028.3 0.0
20/11:00am 10.9 8.8 4.1 63 3.0 ESE 4 7 2 4 1028.4 1028.5 0.0
20/10:30am 9.7 8.3 3.4 65 2.7 CALM 0 0 0 0 1028.5 1028.6 0.0
20/10:00am 8.6 6.4 3.4 70 2.2 E 4 6 2 3 1028.5 1028.6 0.0
20/09:30am 7.0 4.3 2.9 75 1.7 WSW 6 9 3 5 1028.5 1028.6 0.0
20/09:00am 5.9 3.0 2.4 78 1.4 WSW 7 9 4 5 1028.3 1028.4 0.0
20/08:30am 6.0 3.2 3.0 81 1.3 NE 7 11 4 6 1027.9 1028.0 0.0
20/08:00am 3.5 0.0 1.5 87 0.8 ENE 9 11 5 6 1027.5 1027.6 0.0
20/07:30am 3.1 -0.5 0.8 85 0.9 ENE 9 11 5 6 1027.2 1027.3 0.0
20/07:00am 3.3 0.7 0.7 83 1.0 E 4 6 2 3 1026.9 1027.0 0.0
20/06:30am 4.1 0.6 1.3 82 1.1 E 9 9 5 5 1026.4 1026.5 0.0
20/06:00am 3.7 1.5 0.8 81 1.1 NNE 2 6 1 3 1026.4 1026.5 0.0
20/05:30am 4.3 1.1 1.0 79 1.3 E 7 9 4 5 1026.0 1026.1 0.0
20/05:00am 5.3 1.1 1.6 77 1.5 E 13 15 7 8 1025.7 1025.8 0.0
20/04:30am 5.9 2.9 1.8 75 1.7 NE 7 9 4 5 1025.9 1026.0 0.0
20/04:00am 6.0 2.6 1.9 75 1.7 NE 9 11 5 6 1026.0 1026.1 0.0
20/03:30am 6.3 2.2 2.2 75 1.7 E 13 15 7 8 1025.9 1026.0 0.0
20/03:00am 6.0 3.2 1.9 75 1.7 ENE 6 7 3 4 1026.1 1026.2 0.0
20/02:30am 6.3 2.9 2.0 74 1.8 E 9 11 5 6 1026.1 1026.2 0.0
20/02:00am 6.5 2.8 2.2 74 1.8 E 11 13 6 7 1026.2 1026.3 0.0
20/01:30am 6.4 2.7 2.3 75 1.7 E 11 13 6 7 1026.4 1026.5 0.0
20/01:00am 6.5 2.8 2.6 76 1.6 E 11 13 6 7 1026.5 1026.6 0.0
20/12:30am 6.5 3.2 2.6 76 1.6 ESE 9 11 5 6 1026.9 1027.0 0.0
20/12:00am 7.1 3.9 3.0 75 1.7 SE 9 9 5 5 1027.1 1027.2 0.0
 
Date/Time
EST
Temp
°C
App
Temp
°C
Dew
Point
°C
Rel
Hum
%
Delta-T
°C
Wind Press
QNH
hPa
Press
MSL
hPa
Rain since
9am
mm
Dir  Spd
km/h
Gust
km/h
Spd
kts
Gust
kts
19/11:30pm 7.2 4.0 2.9 74 1.8 SSE 9 11 5 6 1027.2 1027.3 0.0
19/11:00pm 7.4 4.6 2.9 73 1.9 S 7 9 4 5 1027.4 1027.5 0.0
19/10:30pm 8.4 5.2 3.1 69 2.3 SSE 9 11 5 6 1027.4 1027.5 0.0
19/10:00pm 8.6 5.4 3.2 69 2.3 SSE 9 9 5 5 1027.1 1027.2 0.0
19/09:30pm 8.5 5.7 3.1 69 2.3 S 7 9 4 5 1027.3 1027.4 0.0
19/09:00pm 8.7 5.5 3.1 68 2.4 SW 9 9 5 5 1027.4 1027.5 0.0
19/08:30pm 8.9 6.1 3.1 67 2.5 WSW 7 9 4 5 1027.5 1027.6 0.0
19/08:00pm 9.1 5.9 3.1 66 2.6 SW 9 11 5 6 1027.4 1027.5 0.0
19/07:30pm 9.4 6.6 3.2 65 2.7 SW 7 9 4 5 1027.1 1027.2 0.0
19/07:00pm 9.7 6.9 3.2 64 2.8 WSW 7 7 4 4 1027.2 1027.3 0.0
19/06:30pm 9.5 6.9 3.3 65 2.7 WSW 6 7 3 4 1026.9 1027.0 0.0
19/06:00pm 9.4 6.6 3.2 65 2.7 WSW 7 7 4 4 1026.5 1026.6 0.0
19/05:30pm 10.1 8.5 2.5 59 3.3 CALM 0 0 0 0 1026.3 1026.4 0.0

Other Formats:

Comma delimited format used in spreadsheet applications
http://www.bom.gov.au/fwo/IDN60801/IDN60801.95697.axf

JavaScript Object Notation format (JSON) in row-major order
http://www.bom.gov.au/fwo/IDN60801/IDN60801.95697.json